Elizabethtown, North Carolina
Current Conditions -  °F | °C
As of 3:35 AM on Friday 28 Nov 2014 (Local Time) from KEYF Reporting Station
Clear Clear  
Wind Chill: 28°   Ceiling: Unl
Heat Index: 35°   Visibility: 10mi
Dew Point: 27°   Wind: 8mph
Humidity: 74%   Direction: 320°NW
Pressure: 30.3"   Gusts: NA
Location:  34.63°N, 78.61°W
Report Text: KEYF 280835Z AUTO 32007KT 10SM CLR 02/M03 A3030 RMK AO2 T00151027
Loading
Personal Weather Stations






























Interactive Weather Map New forecast layout! Learn more

10-Day Weather Forecast

Advertisements
Track Severe Weather on mobile